sensor_id;sensor_type;location;lat;lon;timestamp;P1;durP1;ratioP1;P2;durP2;ratioP2
29688;SDS011;16600;47.444;8.334;2023-04-23T00:02:12;4.72;;;3.53;;
29688;SDS011;16600;47.444;8.334;2023-04-23T00:04:40;7.00;;;3.58;;
29688;SDS011;16600;47.444;8.334;2023-04-23T00:07:12;4.28;;;3.13;;
29688;SDS011;16600;47.444;8.334;2023-04-23T00:12:03;9.43;;;3.47;;
29688;SDS011;16600;47.444;8.334;2023-04-23T00:14:31;8.27;;;3.97;;
29688;SDS011;16600;47.444;8.334;2023-04-23T00:19:22;11.73;;;3.72;;
29688;SDS011;16600;47.444;8.334;2023-04-23T00:24:13;8.00;;;4.20;;
29688;SDS011;16600;47.444;8.334;2023-04-23T00:29:04;11.65;;;3.97;;
29688;SDS011;16600;47.444;8.334;2023-04-23T00:33:55;4.32;;;3.70;;
29688;SDS011;16600;47.444;8.334;2023-04-23T00:38:46;5.78;;;3.33;;
29688;SDS011;16600;47.444;8.334;2023-04-23T00:43:36;4.95;;;3.33;;
29688;SDS011;16600;47.444;8.334;2023-04-23T00:48:27;7.15;;;3.60;;
29688;SDS011;16600;47.444;8.334;2023-04-23T00:53:18;7.55;;;5.22;;
29688;SDS011;16600;47.444;8.334;2023-04-23T00:58:09;4.25;;;3.83;;
29688;SDS011;16600;47.444;8.334;2023-04-23T01:03:00;8.57;;;3.55;;
29688;SDS011;16600;47.444;8.334;2023-04-23T01:05:27;4.38;;;3.53;;
29688;SDS011;16600;47.444;8.334;2023-04-23T01:10:17;13.52;;;3.25;;
29688;SDS011;16600;47.444;8.334;2023-04-23T01:15:09;3.80;;;2.85;;
29688;SDS011;16600;47.444;8.334;2023-04-23T01:20:00;5.13;;;3.33;;
29688;SDS011;16600;47.444;8.334;2023-04-23T01:24:51;3.03;;;2.72;;
29688;SDS011;16600;47.444;8.334;2023-04-23T01:27:17;4.90;;;2.80;;
29688;SDS011;16600;47.444;8.334;2023-04-23T01:29:44;3.70;;;2.97;;
29688;SDS011;16600;47.444;8.334;2023-04-23T01:34:36;4.40;;;2.80;;
29688;SDS011;16600;47.444;8.334;2023-04-23T01:37:02;4.60;;;2.97;;
29688;SDS011;16600;47.444;8.334;2023-04-23T01:41:54;3.97;;;3.00;;
29688;SDS011;16600;47.444;8.334;2023-04-23T01:46:44;8.23;;;2.70;;
29688;SDS011;16600;47.444;8.334;2023-04-23T01:49:12;3.13;;;2.50;;
29688;SDS011;16600;47.444;8.334;2023-04-23T01:54:03;3.35;;;2.90;;
29688;SDS011;16600;47.444;8.334;2023-04-23T01:58:55;3.65;;;2.75;;
29688;SDS011;16600;47.444;8.334;2023-04-23T02:03:46;4.47;;;2.92;;
29688;SDS011;16600;47.444;8.334;2023-04-23T02:06:13;3.33;;;2.78;;
29688;SDS011;16600;47.444;8.334;2023-04-23T02:11:04;5.78;;;2.90;;
29688;SDS011;16600;47.444;8.334;2023-04-23T02:13:31;3.28;;;2.28;;
29688;SDS011;16600;47.444;8.334;2023-04-23T02:18:21;3.05;;;2.85;;
29688;SDS011;16600;47.444;8.334;2023-04-23T02:23:12;3.08;;;2.63;;
29688;SDS011;16600;47.444;8.334;2023-04-23T02:28:04;8.80;;;2.88;;
29688;SDS011;16600;47.444;8.334;2023-04-23T02:30:34;3.70;;;2.50;;
29688;SDS011;16600;47.444;8.334;2023-04-23T02:33:00;4.93;;;3.05;;
29688;SDS011;16600;47.444;8.334;2023-04-23T02:37:51;3.75;;;2.67;;
29688;SDS011;16600;47.444;8.334;2023-04-23T02:40:18;4.07;;;3.42;;
29688;SDS011;16600;47.444;8.334;2023-04-23T02:45:09;11.35;;;3.92;;
29688;SDS011;16600;47.444;8.334;2023-04-23T02:47:35;7.53;;;4.47;;
29688;SDS011;16600;47.444;8.334;2023-04-23T02:50:02;7.70;;;5.50;;
29688;SDS011;16600;47.444;8.334;2023-04-23T02:52:30;7.75;;;5.50;;
29688;SDS011;16600;47.444;8.334;2023-04-23T02:57:21;9.10;;;5.50;;
29688;SDS011;16600;47.444;8.334;2023-04-23T03:02:14;6.28;;;5.60;;
29688;SDS011;16600;47.444;8.334;2023-04-23T03:07:05;6.82;;;5.22;;
29688;SDS011;16600;47.444;8.334;2023-04-23T03:11:56;5.50;;;4.82;;
29688;SDS011;16600;47.444;8.334;2023-04-23T03:14:23;7.78;;;5.78;;
29688;SDS011;16600;47.444;8.334;2023-04-23T03:16:49;6.53;;;5.10;;
29688;SDS011;16600;47.444;8.334;2023-04-23T03:21:40;5.13;;;4.40;;
29688;SDS011;16600;47.444;8.334;2023-04-23T03:24:06;5.60;;;4.45;;
29688;SDS011;16600;47.444;8.334;2023-04-23T03:28:58;4.20;;;3.80;;
29688;SDS011;16600;47.444;8.334;2023-04-23T03:33:50;9.13;;;4.60;;
29688;SDS011;16600;47.444;8.334;2023-04-23T03:36:21;7.47;;;4.13;;
29688;SDS011;16600;47.444;8.334;2023-04-23T03:38:48;4.90;;;4.35;;
29688;SDS011;16600;47.444;8.334;2023-04-23T03:41:15;7.65;;;4.93;;
29688;SDS011;16600;47.444;8.334;2023-04-23T03:43:42;9.77;;;5.32;;
29688;SDS011;16600;47.444;8.334;2023-04-23T03:46:15;10.77;;;6.30;;
29688;SDS011;16600;47.444;8.334;2023-04-23T03:51:11;14.40;;;8.30;;
29688;SDS011;16600;47.444;8.334;2023-04-23T03:53:46;18.42;;;9.70;;
29688;SDS011;16600;47.444;8.334;2023-04-23T03:56:30;16.00;;;10.27;;
29688;SDS011;16600;47.444;8.334;2023-04-23T03:59:08;16.77;;;10.57;;
29688;SDS011;16600;47.444;8.334;2023-04-23T04:03:02;14.23;;;10.40;;
29688;SDS011;16600;47.444;8.334;2023-04-23T04:05:28;16.42;;;9.65;;
29688;SDS011;16600;47.444;8.334;2023-04-23T04:10:19;12.73;;;8.45;;
29688;SDS011;16600;47.444;8.334;2023-04-23T04:15:12;10.13;;;6.93;;
29688;SDS011;16600;47.444;8.334;2023-04-23T04:20:03;12.77;;;8.55;;
29688;SDS011;16600;47.444;8.334;2023-04-23T04:24:54;7.72;;;7.03;;
29688;SDS011;16600;47.444;8.334;2023-04-23T04:27:21;9.80;;;8.80;;
29688;SDS011;16600;47.444;8.334;2023-04-23T04:32:12;10.63;;;8.95;;
29688;SDS011;16600;47.444;8.334;2023-04-23T04:37:04;10.23;;;9.02;;
29688;SDS011;16600;47.444;8.334;2023-04-23T04:41:55;10.52;;;9.07;;
29688;SDS011;16600;47.444;8.334;2023-04-23T04:44:22;12.77;;;9.32;;
29688;SDS011;16600;47.444;8.334;2023-04-23T04:49:12;10.25;;;8.60;;
29688;SDS011;16600;47.444;8.334;2023-04-23T04:54:03;16.70;;;9.25;;
29688;SDS011;16600;47.444;8.334;2023-04-23T04:58:54;12.80;;;10.20;;
29688;SDS011;16600;47.444;8.334;2023-04-23T05:03:46;11.13;;;9.20;;
29688;SDS011;16600;47.444;8.334;2023-04-23T05:08:37;12.00;;;10.30;;
29688;SDS011;16600;47.444;8.334;2023-04-23T05:13:28;17.30;;;10.52;;
29688;SDS011;16600;47.444;8.334;2023-04-23T05:18:19;18.52;;;11.40;;
29688;SDS011;16600;47.444;8.334;2023-04-23T05:23:10;10.90;;;9.80;;
29688;SDS011;16600;47.444;8.334;2023-04-23T05:28:01;11.55;;;9.48;;
29688;SDS011;16600;47.444;8.334;2023-04-23T05:32:52;9.18;;;8.27;;
29688;SDS011;16600;47.444;8.334;2023-04-23T05:37:43;9.07;;;8.18;;
29688;SDS011;16600;47.444;8.334;2023-04-23T05:42:34;11.07;;;9.75;;
29688;SDS011;16600;47.444;8.334;2023-04-23T05:45:00;12.70;;;10.27;;
29688;SDS011;16600;47.444;8.334;2023-04-23T05:49:51;15.52;;;10.20;;
29688;SDS011;16600;47.444;8.334;2023-04-23T05:54:42;11.82;;;10.52;;
29688;SDS011;16600;47.444;8.334;2023-04-23T05:59:32;17.52;;;10.32;;
29688;SDS011;16600;47.444;8.334;2023-04-23T06:04:23;10.73;;;9.65;;
29688;SDS011;16600;47.444;8.334;2023-04-23T06:09:14;9.70;;;8.70;;
29688;SDS011;16600;47.444;8.334;2023-04-23T06:14:05;10.13;;;9.10;;
29688;SDS011;16600;47.444;8.334;2023-04-23T06:18:56;11.13;;;8.02;;
29688;SDS011;16600;47.444;8.334;2023-04-23T06:23:47;9.10;;;7.60;;
29688;SDS011;16600;47.444;8.334;2023-04-23T06:28:37;8.82;;;7.85;;
29688;SDS011;16600;47.444;8.334;2023-04-23T06:31:27;10.73;;;6.60;;
29688;SDS011;16600;47.444;8.334;2023-04-23T06:36:18;9.38;;;7.15;;
29688;SDS011;16600;47.444;8.334;2023-04-23T06:41:09;8.02;;;6.55;;
29688;SDS011;16600;47.444;8.334;2023-04-23T06:46:20;11.05;;;7.40;;
29688;SDS011;16600;47.444;8.334;2023-04-23T06:51:11;13.38;;;8.15;;
29688;SDS011;16600;47.444;8.334;2023-04-23T06:56:02;14.68;;;8.38;;
29688;SDS011;16600;47.444;8.334;2023-04-23T07:00:57;9.77;;;8.20;;
29688;SDS011;16600;47.444;8.334;2023-04-23T07:03:29;10.57;;;8.38;;
29688;SDS011;16600;47.444;8.334;2023-04-23T07:05:55;8.77;;;7.80;;
29688;SDS011;16600;47.444;8.334;2023-04-23T07:10:46;11.93;;;8.27;;
29688;SDS011;16600;47.444;8.334;2023-04-23T07:15:37;9.30;;;7.07;;
29688;SDS011;16600;47.444;8.334;2023-04-23T07:20:28;14.32;;;7.65;;
29688;SDS011;16600;47.444;8.334;2023-04-23T07:25:19;12.32;;;6.93;;
29688;SDS011;16600;47.444;8.334;2023-04-23T07:27:46;10.05;;;7.47;;
29688;SDS011;16600;47.444;8.334;2023-04-23T07:32:37;8.38;;;6.93;;
29688;SDS011;16600;47.444;8.334;2023-04-23T07:37:29;8.55;;;6.90;;
29688;SDS011;16600;47.444;8.334;2023-04-23T07:42:19;7.53;;;5.80;;
29688;SDS011;16600;47.444;8.334;2023-04-23T07:44:45;6.80;;;6.10;;
29688;SDS011;16600;47.444;8.334;2023-04-23T07:47:10;8.00;;;6.15;;
29688;SDS011;16600;47.444;8.334;2023-04-23T07:49:36;7.05;;;6.20;;
29688;SDS011;16600;47.444;8.334;2023-04-23T07:52:01;8.88;;;6.88;;
29688;SDS011;16600;47.444;8.334;2023-04-23T07:54:27;7.85;;;7.03;;
29688;SDS011;16600;47.444;8.334;2023-04-23T07:56:52;10.13;;;6.88;;
29688;SDS011;16600;47.444;8.334;2023-04-23T07:59:18;9.68;;;6.90;;
29688;SDS011;16600;47.444;8.334;2023-04-23T08:01:43;10.05;;;7.38;;
29688;SDS011;16600;47.444;8.334;2023-04-23T08:04:10;8.45;;;6.97;;
29688;SDS011;16600;47.444;8.334;2023-04-23T08:06:35;11.68;;;6.00;;
29688;SDS011;16600;47.444;8.334;2023-04-23T08:09:01;9.63;;;6.00;;
29688;SDS011;16600;47.444;8.334;2023-04-23T08:11:31;7.13;;;6.10;;
29688;SDS011;16600;47.444;8.334;2023-04-23T08:13:56;9.23;;;6.78;;
29688;SDS011;16600;47.444;8.334;2023-04-23T08:16:22;7.20;;;6.10;;
29688;SDS011;16600;47.444;8.334;2023-04-23T08:18:47;8.80;;;6.10;;
29688;SDS011;16600;47.444;8.334;2023-04-23T08:21:13;6.53;;;5.53;;
29688;SDS011;16600;47.444;8.334;2023-04-23T08:23:38;5.20;;;4.70;;
29688;SDS011;16600;47.444;8.334;2023-04-23T08:26:04;7.50;;;5.43;;
29688;SDS011;16600;47.444;8.334;2023-04-23T08:28:29;7.65;;;4.78;;
29688;SDS011;16600;47.444;8.334;2023-04-23T08:30:55;8.73;;;4.57;;
29688;SDS011;16600;47.444;8.334;2023-04-23T08:33:21;4.63;;;4.18;;
29688;SDS011;16600;47.444;8.334;2023-04-23T08:35:47;6.13;;;4.55;;
29688;SDS011;16600;47.444;8.334;2023-04-23T08:38:12;4.30;;;3.40;;
29688;SDS011;16600;47.444;8.334;2023-04-23T08:40:38;5.78;;;4.00;;
29688;SDS011;16600;47.444;8.334;2023-04-23T08:43:36;11.32;;;3.53;;
29688;SDS011;16600;47.444;8.334;2023-04-23T08:45:52;5.72;;;4.45;;
29688;SDS011;16600;47.444;8.334;2023-04-23T08:48:18;3.92;;;3.63;;
29688;SDS011;16600;47.444;8.334;2023-04-23T08:50:44;4.45;;;3.22;;
29688;SDS011;16600;47.444;8.334;2023-04-23T08:53:10;6.45;;;3.40;;
29688;SDS011;16600;47.444;8.334;2023-04-23T08:55:35;4.30;;;3.33;;
29688;SDS011;16600;47.444;8.334;2023-04-23T08:58:01;5.60;;;3.20;;
29688;SDS011;16600;47.444;8.334;2023-04-23T09:00:27;7.55;;;3.30;;
29688;SDS011;16600;47.444;8.334;2023-04-23T09:02:53;4.15;;;3.20;;
29688;SDS011;16600;47.444;8.334;2023-04-23T09:05:20;3.97;;;2.78;;
29688;SDS011;16600;47.444;8.334;2023-04-23T09:07:45;3.55;;;3.00;;
29688;SDS011;16600;47.444;8.334;2023-04-23T09:10:11;2.85;;;2.38;;
29688;SDS011;16600;47.444;8.334;2023-04-23T09:12:38;3.70;;;2.90;;
29688;SDS011;16600;47.444;8.334;2023-04-23T09:15:04;2.90;;;2.60;;
29688;SDS011;16600;47.444;8.334;2023-04-23T09:17:40;3.65;;;2.67;;
29688;SDS011;16600;47.444;8.334;2023-04-23T09:20:07;5.68;;;3.15;;
29688;SDS011;16600;47.444;8.334;2023-04-23T09:22:46;5.95;;;2.67;;
29688;SDS011;16600;47.444;8.334;2023-04-23T09:25:16;4.82;;;2.90;;
29688;SDS011;16600;47.444;8.334;2023-04-23T09:27:42;3.55;;;2.83;;
29688;SDS011;16600;47.444;8.334;2023-04-23T09:30:08;7.35;;;3.35;;
29688;SDS011;16600;47.444;8.334;2023-04-23T09:32:36;4.95;;;2.63;;
29688;SDS011;16600;47.444;8.334;2023-04-23T09:35:02;6.15;;;3.17;;
29688;SDS011;16600;47.444;8.334;2023-04-23T09:37:28;10.52;;;3.03;;
29688;SDS011;16600;47.444;8.334;2023-04-23T09:39:57;7.00;;;2.90;;
29688;SDS011;16600;47.444;8.334;2023-04-23T09:42:23;5.55;;;2.83;;
29688;SDS011;16600;47.444;8.334;2023-04-23T09:44:57;3.33;;;2.25;;
29688;SDS011;16600;47.444;8.334;2023-04-23T09:47:23;6.10;;;2.55;;
29688;SDS011;16600;47.444;8.334;2023-04-23T09:49:49;4.78;;;3.17;;
29688;SDS011;16600;47.444;8.334;2023-04-23T09:52:14;4.03;;;3.47;;
29688;SDS011;16600;47.444;8.334;2023-04-23T09:54:40;3.63;;;3.20;;
29688;SDS011;16600;47.444;8.334;2023-04-23T09:57:06;4.88;;;2.42;;
29688;SDS011;16600;47.444;8.334;2023-04-23T09:59:33;10.68;;;2.53;;
29688;SDS011;16600;47.444;8.334;2023-04-23T10:03:01;9.68;;;2.92;;
29688;SDS011;16600;47.444;8.334;2023-04-23T10:05:27;6.65;;;3.17;;
29688;SDS011;16600;47.444;8.334;2023-04-23T10:07:57;3.78;;;3.08;;
29688;SDS011;16600;47.444;8.334;2023-04-23T10:10:23;6.90;;;2.97;;
29688;SDS011;16600;47.444;8.334;2023-04-23T10:12:49;3.80;;;2.70;;
29688;SDS011;16600;47.444;8.334;2023-04-23T10:15:15;4.05;;;2.50;;
29688;SDS011;16600;47.444;8.334;2023-04-23T10:17:41;2.85;;;2.55;;
29688;SDS011;16600;47.444;8.334;2023-04-23T10:20:07;5.90;;;2.80;;
29688;SDS011;16600;47.444;8.334;2023-04-23T10:22:33;4.70;;;2.67;;
29688;SDS011;16600;47.444;8.334;2023-04-23T10:24:59;3.70;;;2.60;;
29688;SDS011;16600;47.444;8.334;2023-04-23T10:27:27;5.20;;;2.47;;
29688;SDS011;16600;47.444;8.334;2023-04-23T10:29:53;2.72;;;2.17;;
29688;SDS011;16600;47.444;8.334;2023-04-23T10:32:19;7.90;;;2.30;;
29688;SDS011;16600;47.444;8.334;2023-04-23T10:34:44;4.68;;;2.50;;
29688;SDS011;16600;47.444;8.334;2023-04-23T10:37:10;3.92;;;2.80;;
29688;SDS011;16600;47.444;8.334;2023-04-23T10:39:36;3.10;;;2.58;;
29688;SDS011;16600;47.444;8.334;2023-04-23T10:42:02;3.53;;;2.20;;
29688;SDS011;16600;47.444;8.334;2023-04-23T10:44:46;2.97;;;2.33;;
29688;SDS011;16600;47.444;8.334;2023-04-23T10:47:12;3.75;;;2.70;;
29688;SDS011;16600;47.444;8.334;2023-04-23T10:49:38;2.75;;;2.10;;
29688;SDS011;16600;47.444;8.334;2023-04-23T10:54:33;2.83;;;2.60;;
29688;SDS011;16600;47.444;8.334;2023-04-23T10:57:02;6.03;;;2.25;;
29688;SDS011;16600;47.444;8.334;2023-04-23T10:59:29;5.32;;;2.45;;
29688;SDS011;16600;47.444;8.334;2023-04-23T11:01:56;4.57;;;2.15;;
29688;SDS011;16600;47.444;8.334;2023-04-23T11:04:25;4.68;;;2.20;;
29688;SDS011;16600;47.444;8.334;2023-04-23T11:06:53;2.35;;;2.15;;
29688;SDS011;16600;47.444;8.334;2023-04-23T11:09:26;4.40;;;2.42;;
29688;SDS011;16600;47.444;8.334;2023-04-23T11:11:53;4.00;;;2.38;;
29688;SDS011;16600;47.444;8.334;2023-04-23T11:14:19;2.58;;;2.15;;
29688;SDS011;16600;47.444;8.334;2023-04-23T11:16:44;3.05;;;2.40;;
29688;SDS011;16600;47.444;8.334;2023-04-23T11:19:12;4.60;;;2.55;;
29688;SDS011;16600;47.444;8.334;2023-04-23T11:21:59;4.22;;;2.35;;
29688;SDS011;16600;47.444;8.334;2023-04-23T11:24:32;2.85;;;2.38;;
29688;SDS011;16600;47.444;8.334;2023-04-23T11:26:59;2.45;;;1.90;;
29688;SDS011;16600;47.444;8.334;2023-04-23T11:29:25;3.53;;;2.28;;
29688;SDS011;16600;47.444;8.334;2023-04-23T11:31:52;3.08;;;1.92;;
29688;SDS011;16600;47.444;8.334;2023-04-23T11:34:18;4.07;;;2.50;;
29688;SDS011;16600;47.444;8.334;2023-04-23T11:36:44;2.40;;;1.92;;
29688;SDS011;16600;47.444;8.334;2023-04-23T11:39:10;3.10;;;2.05;;
29688;SDS011;16600;47.444;8.334;2023-04-23T11:41:36;3.25;;;1.88;;
29688;SDS011;16600;47.444;8.334;2023-04-23T11:44:02;5.00;;;2.72;;
29688;SDS011;16600;47.444;8.334;2023-04-23T11:46:28;2.47;;;1.70;;
29688;SDS011;16600;47.444;8.334;2023-04-23T11:48:54;2.70;;;2.22;;
29688;SDS011;16600;47.444;8.334;2023-04-23T11:51:24;7.22;;;4.97;;
29688;SDS011;16600;47.444;8.334;2023-04-23T11:53:49;3.38;;;2.15;;
29688;SDS011;16600;47.444;8.334;2023-04-23T11:56:15;2.83;;;2.20;;
29688;SDS011;16600;47.444;8.334;2023-04-23T11:58:40;3.90;;;2.08;;
29688;SDS011;16600;47.444;8.334;2023-04-23T12:01:06;5.20;;;2.10;;
29688;SDS011;16600;47.444;8.334;2023-04-23T12:03:32;3.13;;;2.10;;
29688;SDS011;16600;47.444;8.334;2023-04-23T12:05:57;2.15;;;1.85;;
29688;SDS011;16600;47.444;8.334;2023-04-23T12:08:23;2.42;;;1.80;;
29688;SDS011;16600;47.444;8.334;2023-04-23T12:10:53;1.70;;;1.60;;
29688;SDS011;16600;47.444;8.334;2023-04-23T12:13:22;3.72;;;1.98;;
29688;SDS011;16600;47.444;8.334;2023-04-23T12:15:49;2.22;;;1.92;;
29688;SDS011;16600;47.444;8.334;2023-04-23T12:18:15;5.03;;;2.03;;
29688;SDS011;16600;47.444;8.334;2023-04-23T12:20:41;6.35;;;2.38;;
29688;SDS011;16600;47.444;8.334;2023-04-23T12:23:06;2.80;;;2.25;;
29688;SDS011;16600;47.444;8.334;2023-04-23T12:25:32;5.60;;;2.03;;
29688;SDS011;16600;47.444;8.334;2023-04-23T12:27:58;2.25;;;1.77;;
29688;SDS011;16600;47.444;8.334;2023-04-23T12:30:27;2.35;;;1.90;;
29688;SDS011;16600;47.444;8.334;2023-04-23T12:32:58;1.92;;;1.67;;
29688;SDS011;16600;47.444;8.334;2023-04-23T12:38:04;3.97;;;1.90;;
29688;SDS011;16600;47.444;8.334;2023-04-23T12:40:30;4.88;;;1.80;;
29688;SDS011;16600;47.444;8.334;2023-04-23T12:42:56;7.68;;;1.70;;
29688;SDS011;16600;47.444;8.334;2023-04-23T12:45:21;3.58;;;1.67;;
29688;SDS011;16600;47.444;8.334;2023-04-23T12:47:46;3.60;;;1.63;;
29688;SDS011;16600;47.444;8.334;2023-04-23T12:50:12;3.95;;;2.03;;
29688;SDS011;16600;47.444;8.334;2023-04-23T12:52:38;4.00;;;1.52;;
29688;SDS011;16600;47.444;8.334;2023-04-23T12:55:03;3.13;;;1.50;;
29688;SDS011;16600;47.444;8.334;2023-04-23T12:57:29;4.50;;;2.20;;
29688;SDS011;16600;47.444;8.334;2023-04-23T12:59:54;6.35;;;2.10;;
29688;SDS011;16600;47.444;8.334;2023-04-23T13:02:21;4.13;;;1.60;;
29688;SDS011;16600;47.444;8.334;2023-04-23T13:04:46;3.65;;;1.95;;
29688;SDS011;16600;47.444;8.334;2023-04-23T13:07:12;1.90;;;1.73;;
29688;SDS011;16600;47.444;8.334;2023-04-23T13:09:38;9.52;;;1.92;;
29688;SDS011;16600;47.444;8.334;2023-04-23T13:12:03;2.25;;;1.52;;
29688;SDS011;16600;47.444;8.334;2023-04-23T13:14:29;2.75;;;1.77;;
29688;SDS011;16600;47.444;8.334;2023-04-23T13:16:56;4.80;;;1.98;;
29688;SDS011;16600;47.444;8.334;2023-04-23T13:19:22;3.50;;;1.77;;
29688;SDS011;16600;47.444;8.334;2023-04-23T13:21:47;1.63;;;1.52;;
29688;SDS011;16600;47.444;8.334;2023-04-23T13:24:13;5.07;;;1.65;;
29688;SDS011;16600;47.444;8.334;2023-04-23T13:26:38;3.53;;;1.95;;
29688;SDS011;16600;47.444;8.334;2023-04-23T13:29:04;3.13;;;1.70;;
29688;SDS011;16600;47.444;8.334;2023-04-23T13:31:30;5.30;;;2.20;;
29688;SDS011;16600;47.444;8.334;2023-04-23T13:33:56;3.08;;;2.00;;
29688;SDS011;16600;47.444;8.334;2023-04-23T13:36:22;2.70;;;1.67;;
29688;SDS011;16600;47.444;8.334;2023-04-23T13:38:48;2.08;;;1.88;;
29688;SDS011;16600;47.444;8.334;2023-04-23T13:41:14;2.38;;;1.58;;
29688;SDS011;16600;47.444;8.334;2023-04-23T13:43:39;2.95;;;2.00;;
29688;SDS011;16600;47.444;8.334;2023-04-23T13:46:05;4.15;;;1.85;;
29688;SDS011;16600;47.444;8.334;2023-04-23T13:48:31;1.67;;;1.33;;
29688;SDS011;16600;47.444;8.334;2023-04-23T13:50:57;2.55;;;2.00;;
29688;SDS011;16600;47.444;8.334;2023-04-23T13:53:23;1.90;;;1.70;;
29688;SDS011;16600;47.444;8.334;2023-04-23T13:55:49;3.58;;;1.67;;
29688;SDS011;16600;47.444;8.334;2023-04-23T13:58:15;3.90;;;1.90;;
29688;SDS011;16600;47.444;8.334;2023-04-23T14:00:41;2.72;;;1.70;;
29688;SDS011;16600;47.444;8.334;2023-04-23T14:03:07;2.38;;;1.77;;
29688;SDS011;16600;47.444;8.334;2023-04-23T14:05:33;4.00;;;1.92;;
29688;SDS011;16600;47.444;8.334;2023-04-23T14:07:59;6.32;;;1.73;;
29688;SDS011;16600;47.444;8.334;2023-04-23T14:10:25;3.15;;;1.60;;
29688;SDS011;16600;47.444;8.334;2023-04-23T14:12:51;3.40;;;1.83;;
29688;SDS011;16600;47.444;8.334;2023-04-23T14:15:17;4.03;;;2.10;;
29688;SDS011;16600;47.444;8.334;2023-04-23T14:17:43;6.10;;;2.08;;
29688;SDS011;16600;47.444;8.334;2023-04-23T14:20:10;4.45;;;1.90;;
29688;SDS011;16600;47.444;8.334;2023-04-23T14:22:37;3.00;;;1.75;;
29688;SDS011;16600;47.444;8.334;2023-04-23T14:25:03;3.75;;;1.90;;
29688;SDS011;16600;47.444;8.334;2023-04-23T14:27:33;2.40;;;1.98;;
29688;SDS011;16600;47.444;8.334;2023-04-23T14:30:00;5.50;;;2.03;;
29688;SDS011;16600;47.444;8.334;2023-04-23T14:32:29;5.75;;;2.13;;
29688;SDS011;16600;47.444;8.334;2023-04-23T14:34:54;3.80;;;2.15;;
29688;SDS011;16600;47.444;8.334;2023-04-23T14:37:20;2.17;;;1.20;;
29688;SDS011;16600;47.444;8.334;2023-04-23T14:39:46;2.72;;;1.98;;
29688;SDS011;16600;47.444;8.334;2023-04-23T14:42:13;6.20;;;2.08;;
29688;SDS011;16600;47.444;8.334;2023-04-23T14:44:38;2.92;;;1.65;;
29688;SDS011;16600;47.444;8.334;2023-04-23T14:47:04;4.05;;;1.92;;
29688;SDS011;16600;47.444;8.334;2023-04-23T14:49:33;1.95;;;1.20;;
29688;SDS011;16600;47.444;8.334;2023-04-23T14:51:58;3.30;;;1.67;;
29688;SDS011;16600;47.444;8.334;2023-04-23T14:54:24;4.82;;;1.50;;
29688;SDS011;16600;47.444;8.334;2023-04-23T14:56:50;2.17;;;1.38;;
29688;SDS011;16600;47.444;8.334;2023-04-23T14:59:19;4.30;;;1.48;;
29688;SDS011;16600;47.444;8.334;2023-04-23T15:01:45;2.70;;;1.60;;
29688;SDS011;16600;47.444;8.334;2023-04-23T15:04:10;2.88;;;1.50;;
29688;SDS011;16600;47.444;8.334;2023-04-23T15:06:36;2.60;;;1.48;;
29688;SDS011;16600;47.444;8.334;2023-04-23T15:09:02;7.75;;;1.73;;
29688;SDS011;16600;47.444;8.334;2023-04-23T15:11:28;3.00;;;1.75;;
29688;SDS011;16600;47.444;8.334;2023-04-23T15:13:55;1.95;;;1.20;;
29688;SDS011;16600;47.444;8.334;2023-04-23T15:16:26;16.92;;;2.08;;
29688;SDS011;16600;47.444;8.334;2023-04-23T15:18:54;2.65;;;1.50;;
29688;SDS011;16600;47.444;8.334;2023-04-23T15:21:19;2.55;;;1.55;;
29688;SDS011;16600;47.444;8.334;2023-04-23T15:23:45;3.40;;;1.63;;
29688;SDS011;16600;47.444;8.334;2023-04-23T15:26:10;2.78;;;1.58;;
29688;SDS011;16600;47.444;8.334;2023-04-23T15:28:36;2.65;;;1.67;;
29688;SDS011;16600;47.444;8.334;2023-04-23T15:31:01;2.92;;;1.60;;
29688;SDS011;16600;47.444;8.334;2023-04-23T15:33:28;3.28;;;1.83;;
29688;SDS011;16600;47.444;8.334;2023-04-23T15:35:53;4.50;;;1.73;;
29688;SDS011;16600;47.444;8.334;2023-04-23T15:38:20;3.05;;;2.17;;
29688;SDS011;16600;47.444;8.334;2023-04-23T15:40:46;2.97;;;1.80;;
29688;SDS011;16600;47.444;8.334;2023-04-23T15:43:14;3.70;;;1.88;;
29688;SDS011;16600;47.444;8.334;2023-04-23T15:45:40;3.70;;;2.15;;
29688;SDS011;16600;47.444;8.334;2023-04-23T15:48:07;2.83;;;1.92;;
29688;SDS011;16600;47.444;8.334;2023-04-23T15:50:33;2.72;;;1.85;;
29688;SDS011;16600;47.444;8.334;2023-04-23T15:52:59;5.70;;;2.47;;
29688;SDS011;16600;47.444;8.334;2023-04-23T15:55:28;2.83;;;2.10;;
29688;SDS011;16600;47.444;8.334;2023-04-23T15:57:54;2.58;;;2.38;;
29688;SDS011;16600;47.444;8.334;2023-04-23T16:03:02;2.85;;;2.22;;
29688;SDS011;16600;47.444;8.334;2023-04-23T16:05:30;4.45;;;2.33;;
29688;SDS011;16600;47.444;8.334;2023-04-23T16:07:56;4.18;;;1.60;;
29688;SDS011;16600;47.444;8.334;2023-04-23T16:10:21;7.10;;;1.95;;
29688;SDS011;16600;47.444;8.334;2023-04-23T16:12:47;3.30;;;1.92;;
29688;SDS011;16600;47.444;8.334;2023-04-23T16:15:13;4.68;;;1.95;;
29688;SDS011;16600;47.444;8.334;2023-04-23T16:17:39;2.55;;;2.00;;
29688;SDS011;16600;47.444;8.334;2023-04-23T16:20:05;2.13;;;1.75;;
29688;SDS011;16600;47.444;8.334;2023-04-23T16:22:31;3.67;;;2.03;;
29688;SDS011;16600;47.444;8.334;2023-04-23T16:24:56;1.90;;;1.35;;
29688;SDS011;16600;47.444;8.334;2023-04-23T16:27:22;7.47;;;2.05;;
29688;SDS011;16600;47.444;8.334;2023-04-23T16:29:49;8.90;;;1.80;;
29688;SDS011;16600;47.444;8.334;2023-04-23T16:32:15;4.53;;;1.50;;
29688;SDS011;16600;47.444;8.334;2023-04-23T16:34:41;3.58;;;1.40;;
29688;SDS011;16600;47.444;8.334;2023-04-23T16:37:06;2.60;;;1.70;;
29688;SDS011;16600;47.444;8.334;2023-04-23T16:39:32;2.65;;;1.58;;
29688;SDS011;16600;47.444;8.334;2023-04-23T16:41:57;2.65;;;1.40;;
29688;SDS011;16600;47.444;8.334;2023-04-23T16:44:23;3.00;;;1.80;;
29688;SDS011;16600;47.444;8.334;2023-04-23T16:46:48;4.53;;;1.40;;
29688;SDS011;16600;47.444;8.334;2023-04-23T16:49:14;5.57;;;1.38;;
29688;SDS011;16600;47.444;8.334;2023-04-23T16:51:40;1.70;;;1.20;;
29688;SDS011;16600;47.444;8.334;2023-04-23T16:54:05;3.08;;;1.80;;
29688;SDS011;16600;47.444;8.334;2023-04-23T16:56:31;5.13;;;1.60;;
29688;SDS011;16600;47.444;8.334;2023-04-23T16:58:57;1.42;;;1.08;;
29688;SDS011;16600;47.444;8.334;2023-04-23T17:01:22;2.08;;;1.73;;
29688;SDS011;16600;47.444;8.334;2023-04-23T17:03:48;2.15;;;1.20;;
29688;SDS011;16600;47.444;8.334;2023-04-23T17:06:27;2.30;;;1.33;;
29688;SDS011;16600;47.444;8.334;2023-04-23T17:08:53;2.95;;;1.40;;
29688;SDS011;16600;47.444;8.334;2023-04-23T17:11:19;2.95;;;1.88;;
29688;SDS011;16600;47.444;8.334;2023-04-23T17:13:44;10.35;;;1.55;;
29688;SDS011;16600;47.444;8.334;2023-04-23T17:16:10;1.77;;;1.40;;
29688;SDS011;16600;47.444;8.334;2023-04-23T17:18:35;3.30;;;1.65;;
29688;SDS011;16600;47.444;8.334;2023-04-23T17:21:01;4.60;;;1.67;;
29688;SDS011;16600;47.444;8.334;2023-04-23T17:23:27;2.33;;;1.77;;
29688;SDS011;16600;47.444;8.334;2023-04-23T17:25:52;2.95;;;1.40;;
29688;SDS011;16600;47.444;8.334;2023-04-23T17:28:18;3.38;;;1.95;;
29688;SDS011;16600;47.444;8.334;2023-04-23T17:30:45;3.38;;;1.90;;
29688;SDS011;16600;47.444;8.334;2023-04-23T17:33:17;4.75;;;1.73;;
29688;SDS011;16600;47.444;8.334;2023-04-23T17:35:42;2.40;;;1.55;;
29688;SDS011;16600;47.444;8.334;2023-04-23T17:38:08;1.95;;;1.50;;
29688;SDS011;16600;47.444;8.334;2023-04-23T17:40:34;3.35;;;1.85;;
29688;SDS011;16600;47.444;8.334;2023-04-23T17:43:00;1.42;;;1.33;;
29688;SDS011;16600;47.444;8.334;2023-04-23T17:45:26;1.98;;;1.52;;
29688;SDS011;16600;47.444;8.334;2023-04-23T17:47:52;4.75;;;1.58;;
29688;SDS011;16600;47.444;8.334;2023-04-23T17:52:43;2.83;;;1.50;;
29688;SDS011;16600;47.444;8.334;2023-04-23T17:55:09;4.93;;;2.00;;
29688;SDS011;16600;47.444;8.334;2023-04-23T17:57:35;2.80;;;1.73;;
29688;SDS011;16600;47.444;8.334;2023-04-23T18:00:01;3.30;;;1.85;;